sensor_id;sensor_type;location;lat;lon;timestamp;temperature;humidity
17399;DHT22;8817;48.170;8.592;2023-04-28T00:02:08;17.50;42.60
17399;DHT22;8817;48.170;8.592;2023-04-28T00:04:35;17.40;42.60
17399;DHT22;8817;48.170;8.592;2023-04-28T00:07:03;17.40;42.60
17399;DHT22;8817;48.170;8.592;2023-04-28T00:09:30;17.40;42.70
17399;DHT22;8817;48.170;8.592;2023-04-28T00:11:57;17.40;42.70
17399;DHT22;8817;48.170;8.592;2023-04-28T00:14:24;17.40;42.70
17399;DHT22;8817;48.170;8.592;2023-04-28T00:16:51;17.40;42.70
17399;DHT22;8817;48.170;8.592;2023-04-28T00:19:21;17.40;42.70
17399;DHT22;8817;48.170;8.592;2023-04-28T00:21:48;17.40;42.80
17399;DHT22;8817;48.170;8.592;2023-04-28T00:24:16;17.40;42.80
17399;DHT22;8817;48.170;8.592;2023-04-28T00:26:43;17.40;42.90
17399;DHT22;8817;48.170;8.592;2023-04-28T00:29:10;17.40;42.80
17399;DHT22;8817;48.170;8.592;2023-04-28T00:31:37;17.40;42.90
17399;DHT22;8817;48.170;8.592;2023-04-28T00:34:04;17.40;42.90
17399;DHT22;8817;48.170;8.592;2023-04-28T00:36:31;17.40;42.90
17399;DHT22;8817;48.170;8.592;2023-04-28T00:38:58;17.40;42.90
17399;DHT22;8817;48.170;8.592;2023-04-28T00:41:26;17.40;42.90
17399;DHT22;8817;48.170;8.592;2023-04-28T00:43:53;17.40;42.90
17399;DHT22;8817;48.170;8.592;2023-04-28T00:46:21;17.40;42.90
17399;DHT22;8817;48.170;8.592;2023-04-28T00:48:49;17.40;42.90
17399;DHT22;8817;48.170;8.592;2023-04-28T00:51:16;17.40;42.90
17399;DHT22;8817;48.170;8.592;2023-04-28T00:53:44;17.40;43.00
17399;DHT22;8817;48.170;8.592;2023-04-28T00:56:11;17.40;43.00
17399;DHT22;8817;48.170;8.592;2023-04-28T00:58:39;17.40;43.00
17399;DHT22;8817;48.170;8.592;2023-04-28T01:01:07;17.30;43.00
17399;DHT22;8817;48.170;8.592;2023-04-28T01:03:35;17.40;43.00
17399;DHT22;8817;48.170;8.592;2023-04-28T01:06:03;17.30;43.00
17399;DHT22;8817;48.170;8.592;2023-04-28T01:08:31;17.30;43.00
17399;DHT22;8817;48.170;8.592;2023-04-28T01:10:58;17.40;43.10
17399;DHT22;8817;48.170;8.592;2023-04-28T01:13:26;17.40;43.10
17399;DHT22;8817;48.170;8.592;2023-04-28T01:15:55;17.40;43.10
17399;DHT22;8817;48.170;8.592;2023-04-28T01:18:22;17.30;43.10
17399;DHT22;8817;48.170;8.592;2023-04-28T01:20:49;17.30;43.10
17399;DHT22;8817;48.170;8.592;2023-04-28T01:23:17;17.40;43.20
17399;DHT22;8817;48.170;8.592;2023-04-28T01:25:45;17.30;43.20
17399;DHT22;8817;48.170;8.592;2023-04-28T01:28:12;17.40;43.20
17399;DHT22;8817;48.170;8.592;2023-04-28T01:30:39;17.30;43.20
17399;DHT22;8817;48.170;8.592;2023-04-28T01:33:06;17.40;43.20
17399;DHT22;8817;48.170;8.592;2023-04-28T01:35:32;17.30;43.20
17399;DHT22;8817;48.170;8.592;2023-04-28T01:37:59;17.40;43.20
17399;DHT22;8817;48.170;8.592;2023-04-28T01:40:26;17.40;43.30
17399;DHT22;8817;48.170;8.592;2023-04-28T01:42:55;17.30;43.30
17399;DHT22;8817;48.170;8.592;2023-04-28T01:45:21;17.30;43.20
17399;DHT22;8817;48.170;8.592;2023-04-28T01:47:48;17.30;43.90
17399;DHT22;8817;48.170;8.592;2023-04-28T01:50:15;17.30;43.30
17399;DHT22;8817;48.170;8.592;2023-04-28T01:52:42;17.30;43.30
17399;DHT22;8817;48.170;8.592;2023-04-28T01:55:33;17.30;43.90
17399;DHT22;8817;48.170;8.592;2023-04-28T01:58:07;17.20;43.30
17399;DHT22;8817;48.170;8.592;2023-04-28T02:00:34;17.20;43.30
17399;DHT22;8817;48.170;8.592;2023-04-28T02:03:01;17.20;43.30
17399;DHT22;8817;48.170;8.592;2023-04-28T02:05:28;17.20;43.40
17399;DHT22;8817;48.170;8.592;2023-04-28T02:07:55;17.20;43.40
17399;DHT22;8817;48.170;8.592;2023-04-28T02:10:22;17.20;43.50
17399;DHT22;8817;48.170;8.592;2023-04-28T02:12:49;17.10;43.50
17399;DHT22;8817;48.170;8.592;2023-04-28T02:15:20;17.10;43.50
17399;DHT22;8817;48.170;8.592;2023-04-28T02:17:47;17.10;43.60
17399;DHT22;8817;48.170;8.592;2023-04-28T02:20:14;17.10;43.60
17399;DHT22;8817;48.170;8.592;2023-04-28T02:22:41;17.10;43.70
17399;DHT22;8817;48.170;8.592;2023-04-28T02:25:08;17.10;43.70
17399;DHT22;8817;48.170;8.592;2023-04-28T02:27:35;17.10;43.70
17399;DHT22;8817;48.170;8.592;2023-04-28T02:30:03;17.10;43.70
17399;DHT22;8817;48.170;8.592;2023-04-28T02:32:31;17.00;43.70
17399;DHT22;8817;48.170;8.592;2023-04-28T02:34:58;17.00;43.80
17399;DHT22;8817;48.170;8.592;2023-04-28T02:37:25;17.00;43.80
17399;DHT22;8817;48.170;8.592;2023-04-28T02:39:52;16.90;43.80
17399;DHT22;8817;48.170;8.592;2023-04-28T02:42:19;16.90;43.90
17399;DHT22;8817;48.170;8.592;2023-04-28T02:44:46;16.90;43.90
17399;DHT22;8817;48.170;8.592;2023-04-28T02:47:13;16.90;44.50
17399;DHT22;8817;48.170;8.592;2023-04-28T02:49:41;16.80;44.00
17399;DHT22;8817;48.170;8.592;2023-04-28T02:52:08;16.80;44.00
17399;DHT22;8817;48.170;8.592;2023-04-28T02:54:35;16.80;44.10
17399;DHT22;8817;48.170;8.592;2023-04-28T02:57:02;16.80;44.10
17399;DHT22;8817;48.170;8.592;2023-04-28T02:59:29;16.70;44.10
17399;DHT22;8817;48.170;8.592;2023-04-28T03:01:56;16.70;44.70
17399;DHT22;8817;48.170;8.592;2023-04-28T03:04:23;16.70;44.20
17399;DHT22;8817;48.170;8.592;2023-04-28T03:06:51;16.70;44.30
17399;DHT22;8817;48.170;8.592;2023-04-28T03:09:18;16.60;44.30
17399;DHT22;8817;48.170;8.592;2023-04-28T03:11:45;16.60;44.30
17399;DHT22;8817;48.170;8.592;2023-04-28T03:14:12;16.60;44.40
17399;DHT22;8817;48.170;8.592;2023-04-28T03:16:39;16.60;44.40
17399;DHT22;8817;48.170;8.592;2023-04-28T03:19:06;16.50;44.40
17399;DHT22;8817;48.170;8.592;2023-04-28T03:21:33;16.50;44.40
17399;DHT22;8817;48.170;8.592;2023-04-28T03:24:01;16.50;44.50
17399;DHT22;8817;48.170;8.592;2023-04-28T03:26:28;16.40;44.50
17399;DHT22;8817;48.170;8.592;2023-04-28T03:28:55;16.40;44.60
17399;DHT22;8817;48.170;8.592;2023-04-28T03:31:22;16.30;44.50
17399;DHT22;8817;48.170;8.592;2023-04-28T03:33:49;16.30;44.60
17399;DHT22;8817;48.170;8.592;2023-04-28T03:36:15;16.30;44.70
17399;DHT22;8817;48.170;8.592;2023-04-28T03:38:42;16.30;44.70
17399;DHT22;8817;48.170;8.592;2023-04-28T03:41:11;16.20;44.80
17399;DHT22;8817;48.170;8.592;2023-04-28T03:43:37;16.20;44.90
17399;DHT22;8817;48.170;8.592;2023-04-28T03:46:04;16.20;44.90
17399;DHT22;8817;48.170;8.592;2023-04-28T03:48:31;16.20;45.00
17399;DHT22;8817;48.170;8.592;2023-04-28T03:50:58;16.20;45.00
17399;DHT22;8817;48.170;8.592;2023-04-28T03:53:25;16.20;45.00
17399;DHT22;8817;48.170;8.592;2023-04-28T03:55:52;16.20;45.10
17399;DHT22;8817;48.170;8.592;2023-04-28T03:58:20;16.10;45.10
17399;DHT22;8817;48.170;8.592;2023-04-28T04:00:47;16.10;45.10
17399;DHT22;8817;48.170;8.592;2023-04-28T04:03:14;16.10;45.20
17399;DHT22;8817;48.170;8.592;2023-04-28T04:05:41;16.10;45.20
17399;DHT22;8817;48.170;8.592;2023-04-28T04:08:08;16.10;45.20
17399;DHT22;8817;48.170;8.592;2023-04-28T04:10:35;16.10;45.30
17399;DHT22;8817;48.170;8.592;2023-04-28T04:13:02;16.10;45.30
17399;DHT22;8817;48.170;8.592;2023-04-28T04:15:30;16.00;45.30
17399;DHT22;8817;48.170;8.592;2023-04-28T04:17:57;16.00;45.40
17399;DHT22;8817;48.170;8.592;2023-04-28T04:20:24;16.00;45.40
17399;DHT22;8817;48.170;8.592;2023-04-28T04:22:51;16.00;45.50
17399;DHT22;8817;48.170;8.592;2023-04-28T04:25:18;16.00;45.50
17399;DHT22;8817;48.170;8.592;2023-04-28T04:27:45;16.00;45.60
17399;DHT22;8817;48.170;8.592;2023-04-28T04:30:12;16.00;45.60
17399;DHT22;8817;48.170;8.592;2023-04-28T04:32:40;16.00;45.60
17399;DHT22;8817;48.170;8.592;2023-04-28T04:35:08;16.00;45.70
17399;DHT22;8817;48.170;8.592;2023-04-28T04:37:35;16.00;45.70
17399;DHT22;8817;48.170;8.592;2023-04-28T04:40:02;16.00;45.80
17399;DHT22;8817;48.170;8.592;2023-04-28T04:42:29;16.00;45.80
17399;DHT22;8817;48.170;8.592;2023-04-28T04:44:56;16.00;45.80
17399;DHT22;8817;48.170;8.592;2023-04-28T04:47:23;16.00;46.50
17399;DHT22;8817;48.170;8.592;2023-04-28T04:49:51;16.00;45.90
17399;DHT22;8817;48.170;8.592;2023-04-28T04:52:19;16.00;46.00
17399;DHT22;8817;48.170;8.592;2023-04-28T04:54:46;16.00;46.00
17399;DHT22;8817;48.170;8.592;2023-04-28T04:57:13;16.00;46.00
17399;DHT22;8817;48.170;8.592;2023-04-28T04:59:40;16.00;46.10
17399;DHT22;8817;48.170;8.592;2023-04-28T05:02:07;16.00;46.20
17399;DHT22;8817;48.170;8.592;2023-04-28T05:04:34;15.90;46.10
17399;DHT22;8817;48.170;8.592;2023-04-28T05:07:02;15.90;46.10
17399;DHT22;8817;48.170;8.592;2023-04-28T05:09:29;15.90;46.20
17399;DHT22;8817;48.170;8.592;2023-04-28T05:11:56;15.90;46.20
17399;DHT22;8817;48.170;8.592;2023-04-28T05:14:23;15.90;46.30
17399;DHT22;8817;48.170;8.592;2023-04-28T05:16:50;15.90;46.30
17399;DHT22;8817;48.170;8.592;2023-04-28T05:19:17;15.90;46.40
17399;DHT22;8817;48.170;8.592;2023-04-28T05:21:44;15.90;46.40
17399;DHT22;8817;48.170;8.592;2023-04-28T05:24:13;15.90;46.50
17399;DHT22;8817;48.170;8.592;2023-04-28T05:26:40;15.90;46.60
17399;DHT22;8817;48.170;8.592;2023-04-28T05:29:07;15.90;46.60
17399;DHT22;8817;48.170;8.592;2023-04-28T05:31:34;15.90;46.60
17399;DHT22;8817;48.170;8.592;2023-04-28T05:34:01;15.90;46.60
17399;DHT22;8817;48.170;8.592;2023-04-28T05:36:28;15.90;46.70
17399;DHT22;8817;48.170;8.592;2023-04-28T05:38:56;15.90;46.70
17399;DHT22;8817;48.170;8.592;2023-04-28T05:41:24;15.90;46.80
17399;DHT22;8817;48.170;8.592;2023-04-28T05:43:51;15.90;46.90
17399;DHT22;8817;48.170;8.592;2023-04-28T05:46:18;15.90;46.90
17399;DHT22;8817;48.170;8.592;2023-04-28T05:48:45;15.90;47.00
17399;DHT22;8817;48.170;8.592;2023-04-28T05:51:12;15.90;47.00
17399;DHT22;8817;48.170;8.592;2023-04-28T05:53:39;15.90;47.00
17399;DHT22;8817;48.170;8.592;2023-04-28T05:56:07;15.90;47.10
17399;DHT22;8817;48.170;8.592;2023-04-28T05:58:35;15.90;47.10
17399;DHT22;8817;48.170;8.592;2023-04-28T06:01:03;15.90;47.20
17399;DHT22;8817;48.170;8.592;2023-04-28T06:03:29;16.00;47.20
17399;DHT22;8817;48.170;8.592;2023-04-28T06:05:56;16.00;47.30
17399;DHT22;8817;48.170;8.592;2023-04-28T06:08:23;16.00;47.30
17399;DHT22;8817;48.170;8.592;2023-04-28T06:10:50;16.00;47.40
17399;DHT22;8817;48.170;8.592;2023-04-28T06:13:17;16.00;47.40
17399;DHT22;8817;48.170;8.592;2023-04-28T06:15:45;16.00;47.40
17399;DHT22;8817;48.170;8.592;2023-04-28T06:18:12;16.00;47.50
17399;DHT22;8817;48.170;8.592;2023-04-28T06:20:40;16.00;47.50
17399;DHT22;8817;48.170;8.592;2023-04-28T06:23:07;16.00;47.50
17399;DHT22;8817;48.170;8.592;2023-04-28T06:25:34;16.00;47.60
17399;DHT22;8817;48.170;8.592;2023-04-28T06:28:02;16.00;47.60
17399;DHT22;8817;48.170;8.592;2023-04-28T06:30:28;16.10;47.70
17399;DHT22;8817;48.170;8.592;2023-04-28T06:32:57;16.10;47.80
17399;DHT22;8817;48.170;8.592;2023-04-28T06:35:24;16.10;47.90
17399;DHT22;8817;48.170;8.592;2023-04-28T06:37:51;16.10;47.90
17399;DHT22;8817;48.170;8.592;2023-04-28T06:40:18;16.10;47.90
17399;DHT22;8817;48.170;8.592;2023-04-28T06:42:45;16.10;48.00
17399;DHT22;8817;48.170;8.592;2023-04-28T06:45:12;16.10;48.00
17399;DHT22;8817;48.170;8.592;2023-04-28T06:47:39;16.20;48.00
17399;DHT22;8817;48.170;8.592;2023-04-28T06:50:08;16.20;48.10
17399;DHT22;8817;48.170;8.592;2023-04-28T06:52:35;16.20;48.20
17399;DHT22;8817;48.170;8.592;2023-04-28T06:55:03;16.20;48.20
17399;DHT22;8817;48.170;8.592;2023-04-28T06:57:31;16.20;48.20
17399;DHT22;8817;48.170;8.592;2023-04-28T06:59:57;16.20;48.30
17399;DHT22;8817;48.170;8.592;2023-04-28T07:02:24;16.30;48.40
17399;DHT22;8817;48.170;8.592;2023-04-28T07:04:51;16.30;48.40
17399;DHT22;8817;48.170;8.592;2023-04-28T07:07:20;16.30;48.40
17399;DHT22;8817;48.170;8.592;2023-04-28T07:09:47;16.40;48.60
17399;DHT22;8817;48.170;8.592;2023-04-28T07:12:13;16.40;48.60
17399;DHT22;8817;48.170;8.592;2023-04-28T07:14:40;16.40;48.60
17399;DHT22;8817;48.170;8.592;2023-04-28T07:17:07;16.40;48.50
17399;DHT22;8817;48.170;8.592;2023-04-28T07:19:34;16.50;49.20
17399;DHT22;8817;48.170;8.592;2023-04-28T07:22:01;16.40;48.60
17399;DHT22;8817;48.170;8.592;2023-04-28T07:24:29;16.50;48.60
17399;DHT22;8817;48.170;8.592;2023-04-28T07:26:56;16.50;48.70
17399;DHT22;8817;48.170;8.592;2023-04-28T07:29:23;16.50;48.60
17399;DHT22;8817;48.170;8.592;2023-04-28T07:31:53;16.50;48.60
17399;DHT22;8817;48.170;8.592;2023-04-28T07:34:20;16.50;48.60
17399;DHT22;8817;48.170;8.592;2023-04-28T07:36:47;16.60;48.70
17399;DHT22;8817;48.170;8.592;2023-04-28T07:39:14;16.50;48.70
17399;DHT22;8817;48.170;8.592;2023-04-28T07:41:42;16.60;48.70
17399;DHT22;8817;48.170;8.592;2023-04-28T07:44:09;16.50;48.70
17399;DHT22;8817;48.170;8.592;2023-04-28T07:46:36;16.60;48.80
17399;DHT22;8817;48.170;8.592;2023-04-28T07:49:03;16.60;48.80
17399;DHT22;8817;48.170;8.592;2023-04-28T07:51:30;16.60;48.90
17399;DHT22;8817;48.170;8.592;2023-04-28T07:53:57;16.60;49.00
17399;DHT22;8817;48.170;8.592;2023-04-28T07:56:24;16.60;49.00
17399;DHT22;8817;48.170;8.592;2023-04-28T07:58:53;16.60;49.10
17399;DHT22;8817;48.170;8.592;2023-04-28T08:01:20;16.60;49.20
17399;DHT22;8817;48.170;8.592;2023-04-28T08:03:47;16.60;49.20
17399;DHT22;8817;48.170;8.592;2023-04-28T08:06:14;16.60;49.20
17399;DHT22;8817;48.170;8.592;2023-04-28T08:08:41;16.70;49.30
17399;DHT22;8817;48.170;8.592;2023-04-28T08:11:07;16.70;49.30
17399;DHT22;8817;48.170;8.592;2023-04-28T08:13:34;16.70;49.30
17399;DHT22;8817;48.170;8.592;2023-04-28T08:16:03;16.70;49.30
17399;DHT22;8817;48.170;8.592;2023-04-28T08:18:30;16.70;49.40
17399;DHT22;8817;48.170;8.592;2023-04-28T08:20:57;16.70;49.40
17399;DHT22;8817;48.170;8.592;2023-04-28T08:23:24;16.70;49.40
17399;DHT22;8817;48.170;8.592;2023-04-28T08:25:52;16.70;49.50
17399;DHT22;8817;48.170;8.592;2023-04-28T08:28:19;16.80;49.60
17399;DHT22;8817;48.170;8.592;2023-04-28T08:30:46;16.80;50.20
17399;DHT22;8817;48.170;8.592;2023-04-28T08:33:14;16.80;49.70
17399;DHT22;8817;48.170;8.592;2023-04-28T08:35:41;16.80;49.80
17399;DHT22;8817;48.170;8.592;2023-04-28T08:38:08;16.90;49.90
17399;DHT22;8817;48.170;8.592;2023-04-28T08:40:38;16.90;49.90
17399;DHT22;8817;48.170;8.592;2023-04-28T08:43:05;16.90;50.00
17399;DHT22;8817;48.170;8.592;2023-04-28T08:45:39;17.00;50.10
17399;DHT22;8817;48.170;8.592;2023-04-28T08:48:21;17.00;50.20
17399;DHT22;8817;48.170;8.592;2023-04-28T08:50:50;17.10;50.40
17399;DHT22;8817;48.170;8.592;2023-04-28T08:53:21;17.10;50.30
17399;DHT22;8817;48.170;8.592;2023-04-28T08:55:51;17.20;50.50
17399;DHT22;8817;48.170;8.592;2023-04-28T08:58:21;17.30;50.40
17399;DHT22;8817;48.170;8.592;2023-04-28T09:00:48;17.40;50.40
17399;DHT22;8817;48.170;8.592;2023-04-28T09:03:16;17.40;50.40
17399;DHT22;8817;48.170;8.592;2023-04-28T09:05:43;17.40;50.40
17399;DHT22;8817;48.170;8.592;2023-04-28T09:08:10;17.50;50.40
17399;DHT22;8817;48.170;8.592;2023-04-28T09:10:37;17.50;50.40
17399;DHT22;8817;48.170;8.592;2023-04-28T09:13:04;17.50;50.40
17399;DHT22;8817;48.170;8.592;2023-04-28T09:15:33;17.50;50.50
17399;DHT22;8817;48.170;8.592;2023-04-28T09:18:01;17.60;50.60
17399;DHT22;8817;48.170;8.592;2023-04-28T09:20:31;17.60;50.70
17399;DHT22;8817;48.170;8.592;2023-04-28T09:23:13;17.60;50.80
17399;DHT22;8817;48.170;8.592;2023-04-28T09:25:42;17.70;50.90
17399;DHT22;8817;48.170;8.592;2023-04-28T09:28:21;17.70;50.80
17399;DHT22;8817;48.170;8.592;2023-04-28T09:30:48;17.80;50.80
17399;DHT22;8817;48.170;8.592;2023-04-28T09:33:15;17.80;50.80
17399;DHT22;8817;48.170;8.592;2023-04-28T09:35:44;17.80;50.80
17399;DHT22;8817;48.170;8.592;2023-04-28T09:38:12;17.80;50.80
17399;DHT22;8817;48.170;8.592;2023-04-28T09:40:52;17.90;50.90
17399;DHT22;8817;48.170;8.592;2023-04-28T09:43:26;17.80;50.90
17399;DHT22;8817;48.170;8.592;2023-04-28T09:45:54;17.90;51.00
17399;DHT22;8817;48.170;8.592;2023-04-28T09:48:29;17.90;51.00
17399;DHT22;8817;48.170;8.592;2023-04-28T09:50:58;17.90;51.10
17399;DHT22;8817;48.170;8.592;2023-04-28T09:53:26;18.00;51.20
17399;DHT22;8817;48.170;8.592;2023-04-28T09:55:54;18.00;51.30
17399;DHT22;8817;48.170;8.592;2023-04-28T09:58:22;18.00;51.20
17399;DHT22;8817;48.170;8.592;2023-04-28T10:00:52;18.10;51.30
17399;DHT22;8817;48.170;8.592;2023-04-28T10:03:21;18.10;51.20
17399;DHT22;8817;48.170;8.592;2023-04-28T10:05:50;18.10;51.30
17399;DHT22;8817;48.170;8.592;2023-04-28T10:08:19;18.10;51.30
17399;DHT22;8817;48.170;8.592;2023-04-28T10:10:48;18.10;51.30
17399;DHT22;8817;48.170;8.592;2023-04-28T10:13:16;18.20;51.40
17399;DHT22;8817;48.170;8.592;2023-04-28T10:15:44;18.20;51.40
17399;DHT22;8817;48.170;8.592;2023-04-28T10:18:11;18.20;51.50
17399;DHT22;8817;48.170;8.592;2023-04-28T10:20:40;18.20;51.50
17399;DHT22;8817;48.170;8.592;2023-04-28T10:23:27;18.30;51.50
17399;DHT22;8817;48.170;8.592;2023-04-28T10:25:57;18.30;51.50
17399;DHT22;8817;48.170;8.592;2023-04-28T10:28:26;18.30;51.50
17399;DHT22;8817;48.170;8.592;2023-04-28T10:31:08;18.40;51.60
17399;DHT22;8817;48.170;8.592;2023-04-28T10:33:36;18.40;51.70
17399;DHT22;8817;48.170;8.592;2023-04-28T10:36:04;18.40;52.30
17399;DHT22;8817;48.170;8.592;2023-04-28T10:38:33;18.50;51.80
17399;DHT22;8817;48.170;8.592;2023-04-28T10:41:00;18.50;51.90
17399;DHT22;8817;48.170;8.592;2023-04-28T10:43:38;18.50;51.90
17399;DHT22;8817;48.170;8.592;2023-04-28T10:46:06;18.50;52.00
17399;DHT22;8817;48.170;8.592;2023-04-28T10:48:52;18.60;52.10
17399;DHT22;8817;48.170;8.592;2023-04-28T10:51:26;18.60;52.10
17399;DHT22;8817;48.170;8.592;2023-04-28T10:54:16;18.70;52.20
17399;DHT22;8817;48.170;8.592;2023-04-28T10:57:18;18.70;52.20
17399;DHT22;8817;48.170;8.592;2023-04-28T10:59:45;18.70;52.20
17399;DHT22;8817;48.170;8.592;2023-04-28T11:05:15;18.80;52.30
17399;DHT22;8817;48.170;8.592;2023-04-28T11:11:21;19.00;52.40
17399;DHT22;8817;48.170;8.592;2023-04-28T11:13:49;18.90;52.20
17399;DHT22;8817;48.170;8.592;2023-04-28T11:16:18;19.00;52.20
17399;DHT22;8817;48.170;8.592;2023-04-28T11:18:51;19.00;52.30
17399;DHT22;8817;48.170;8.592;2023-04-28T11:21:18;19.00;52.40
17399;DHT22;8817;48.170;8.592;2023-04-28T11:23:46;19.10;52.40
17399;DHT22;8817;48.170;8.592;2023-04-28T11:26:13;19.10;52.50
17399;DHT22;8817;48.170;8.592;2023-04-28T11:28:49;19.10;52.50
17399;DHT22;8817;48.170;8.592;2023-04-28T11:31:17;19.10;52.60
17399;DHT22;8817;48.170;8.592;2023-04-28T11:33:48;19.10;52.60
17399;DHT22;8817;48.170;8.592;2023-04-28T11:36:26;19.10;52.70
17399;DHT22;8817;48.170;8.592;2023-04-28T11:38:54;19.20;52.80
17399;DHT22;8817;48.170;8.592;2023-04-28T11:41:22;19.20;52.80
17399;DHT22;8817;48.170;8.592;2023-04-28T11:43:50;19.30;52.90
17399;DHT22;8817;48.170;8.592;2023-04-28T11:46:18;19.30;52.90
17399;DHT22;8817;48.170;8.592;2023-04-28T11:48:47;19.30;52.90
17399;DHT22;8817;48.170;8.592;2023-04-28T11:51:30;19.30;52.90
17399;DHT22;8817;48.170;8.592;2023-04-28T11:53:58;19.40;53.10
17399;DHT22;8817;48.170;8.592;2023-04-28T11:56:25;19.40;52.90
17399;DHT22;8817;48.170;8.592;2023-04-28T11:59:07;19.40;52.90
17399;DHT22;8817;48.170;8.592;2023-04-28T12:01:44;19.50;53.00
17399;DHT22;8817;48.170;8.592;2023-04-28T12:04:11;19.50;53.10
17399;DHT22;8817;48.170;8.592;2023-04-28T12:06:38;19.50;53.10
17399;DHT22;8817;48.170;8.592;2023-04-28T12:09:16;19.60;53.10
17399;DHT22;8817;48.170;8.592;2023-04-28T12:11:54;19.60;53.10
17399;DHT22;8817;48.170;8.592;2023-04-28T12:14:23;19.70;53.20
17399;DHT22;8817;48.170;8.592;2023-04-28T12:16:51;19.70;53.20
17399;DHT22;8817;48.170;8.592;2023-04-28T12:19:18;19.70;53.10
17399;DHT22;8817;48.170;8.592;2023-04-28T12:22:01;19.80;53.10
17399;DHT22;8817;48.170;8.592;2023-04-28T12:24:28;19.80;53.20
17399;DHT22;8817;48.170;8.592;2023-04-28T12:27:14;19.80;53.10
17399;DHT22;8817;48.170;8.592;2023-04-28T12:29:43;19.90;53.20
17399;DHT22;8817;48.170;8.592;2023-04-28T12:32:11;19.90;53.20
17399;DHT22;8817;48.170;8.592;2023-04-28T12:34:39;19.90;53.30
17399;DHT22;8817;48.170;8.592;2023-04-28T12:37:07;20.00;53.40
17399;DHT22;8817;48.170;8.592;2023-04-28T12:39:34;20.00;53.30
17399;DHT22;8817;48.170;8.592;2023-04-28T12:42:03;20.10;53.50
17399;DHT22;8817;48.170;8.592;2023-04-28T12:44:34;20.10;53.50
17399;DHT22;8817;48.170;8.592;2023-04-28T12:47:04;20.20;53.50
17399;DHT22;8817;48.170;8.592;2023-04-28T12:49:32;20.30;53.60
17399;DHT22;8817;48.170;8.592;2023-04-28T12:51:59;20.40;53.60
17399;DHT22;8817;48.170;8.592;2023-04-28T12:54:26;20.50;53.60
17399;DHT22;8817;48.170;8.592;2023-04-28T12:56:53;20.50;54.10
17399;DHT22;8817;48.170;8.592;2023-04-28T12:59:20;20.60;54.10
17399;DHT22;8817;48.170;8.592;2023-04-28T13:01:48;20.70;53.60
17399;DHT22;8817;48.170;8.592;2023-04-28T13:04:16;20.70;53.60
17399;DHT22;8817;48.170;8.592;2023-04-28T13:06:43;20.80;53.60
17399;DHT22;8817;48.170;8.592;2023-04-28T13:09:11;20.90;53.50
17399;DHT22;8817;48.170;8.592;2023-04-28T13:11:38;20.90;53.30
17399;DHT22;8817;48.170;8.592;2023-04-28T13:14:05;21.00;53.30
17399;DHT22;8817;48.170;8.592;2023-04-28T13:16:32;21.00;53.30
17399;DHT22;8817;48.170;8.592;2023-04-28T13:18:59;21.00;53.20
17399;DHT22;8817;48.170;8.592;2023-04-28T13:21:27;21.10;53.20
17399;DHT22;8817;48.170;8.592;2023-04-28T13:23:54;21.10;53.10
17399;DHT22;8817;48.170;8.592;2023-04-28T13:26:22;21.10;53.00
17399;DHT22;8817;48.170;8.592;2023-04-28T13:28:50;21.10;52.90
17399;DHT22;8817;48.170;8.592;2023-04-28T13:31:16;21.10;52.80
17399;DHT22;8817;48.170;8.592;2023-04-28T13:33:44;21.00;52.80
17399;DHT22;8817;48.170;8.592;2023-04-28T13:36:10;21.00;52.80
17399;DHT22;8817;48.170;8.592;2023-04-28T13:38:39;21.00;52.80
17399;DHT22;8817;48.170;8.592;2023-04-28T13:41:06;20.90;52.80
17399;DHT22;8817;48.170;8.592;2023-04-28T13:43:33;20.90;52.80
17399;DHT22;8817;48.170;8.592;2023-04-28T13:46:00;20.90;52.90
17399;DHT22;8817;48.170;8.592;2023-04-28T13:48:31;20.90;53.10
17399;DHT22;8817;48.170;8.592;2023-04-28T13:50:59;20.90;53.20
17399;DHT22;8817;48.170;8.592;2023-04-28T13:53:26;20.90;53.30
17399;DHT22;8817;48.170;8.592;2023-04-28T13:55:54;21.00;53.30
17399;DHT22;8817;48.170;8.592;2023-04-28T13:58:22;21.00;53.30
17399;DHT22;8817;48.170;8.592;2023-04-28T14:00:49;21.00;53.20
17399;DHT22;8817;48.170;8.592;2023-04-28T14:03:16;21.00;53.10
17399;DHT22;8817;48.170;8.592;2023-04-28T14:05:44;21.00;53.10
17399;DHT22;8817;48.170;8.592;2023-04-28T14:08:11;21.00;53.10
17399;DHT22;8817;48.170;8.592;2023-04-28T14:10:38;21.00;53.00
17399;DHT22;8817;48.170;8.592;2023-04-28T14:13:06;21.00;53.00
17399;DHT22;8817;48.170;8.592;2023-04-28T14:15:33;21.00;53.60
17399;DHT22;8817;48.170;8.592;2023-04-28T14:18:01;20.90;53.00
17399;DHT22;8817;48.170;8.592;2023-04-28T14:20:28;20.90;53.00
17399;DHT22;8817;48.170;8.592;2023-04-28T14:22:56;20.90;53.00
17399;DHT22;8817;48.170;8.592;2023-04-28T14:25:23;20.90;53.00
17399;DHT22;8817;48.170;8.592;2023-04-28T14:27:50;20.90;53.00
17399;DHT22;8817;48.170;8.592;2023-04-28T14:30:19;20.90;53.00
17399;DHT22;8817;48.170;8.592;2023-04-28T14:32:46;20.90;53.00
17399;DHT22;8817;48.170;8.592;2023-04-28T14:35:14;20.80;53.00
17399;DHT22;8817;48.170;8.592;2023-04-28T14:37:42;20.90;53.10
17399;DHT22;8817;48.170;8.592;2023-04-28T14:40:09;20.90;53.20
17399;DHT22;8817;48.170;8.592;2023-04-28T14:42:36;20.90;53.20
17399;DHT22;8817;48.170;8.592;2023-04-28T14:45:04;20.90;53.20
17399;DHT22;8817;48.170;8.592;2023-04-28T14:47:33;21.00;53.30
17399;DHT22;8817;48.170;8.592;2023-04-28T14:50:00;21.00;53.20
17399;DHT22;8817;48.170;8.592;2023-04-28T14:52:27;21.00;53.20
17399;DHT22;8817;48.170;8.592;2023-04-28T14:54:56;21.10;53.20
17399;DHT22;8817;48.170;8.592;2023-04-28T14:57:24;21.10;53.10
17399;DHT22;8817;48.170;8.592;2023-04-28T14:59:51;21.10;53.10
17399;DHT22;8817;48.170;8.592;2023-04-28T15:02:19;21.20;53.10
17399;DHT22;8817;48.170;8.592;2023-04-28T15:04:52;21.20;53.10
17399;DHT22;8817;48.170;8.592;2023-04-28T15:07:19;21.20;53.00
17399;DHT22;8817;48.170;8.592;2023-04-28T15:09:47;21.20;53.00
17399;DHT22;8817;48.170;8.592;2023-04-28T15:12:14;21.20;53.00
17399;DHT22;8817;48.170;8.592;2023-04-28T15:14:41;21.20;53.10
17399;DHT22;8817;48.170;8.592;2023-04-28T15:17:08;21.30;53.20
17399;DHT22;8817;48.170;8.592;2023-04-28T15:19:35;21.30;53.20
17399;DHT22;8817;48.170;8.592;2023-04-28T15:22:03;21.30;53.10
17399;DHT22;8817;48.170;8.592;2023-04-28T15:24:30;21.40;53.30
17399;DHT22;8817;48.170;8.592;2023-04-28T15:26:57;21.40;53.10
17399;DHT22;8817;48.170;8.592;2023-04-28T15:29:24;21.40;53.10
17399;DHT22;8817;48.170;8.592;2023-04-28T15:31:51;21.50;53.00
17399;DHT22;8817;48.170;8.592;2023-04-28T15:34:18;21.50;53.40
17399;DHT22;8817;48.170;8.592;2023-04-28T15:36:45;21.50;52.90
17399;DHT22;8817;48.170;8.592;2023-04-28T15:39:13;21.50;52.80
17399;DHT22;8817;48.170;8.592;2023-04-28T15:41:40;21.50;52.80
17399;DHT22;8817;48.170;8.592;2023-04-28T15:44:07;21.50;52.80
17399;DHT22;8817;48.170;8.592;2023-04-28T15:46:35;21.50;52.80
17399;DHT22;8817;48.170;8.592;2023-04-28T15:49:02;21.50;52.80
17399;DHT22;8817;48.170;8.592;2023-04-28T15:51:29;21.50;52.80
17399;DHT22;8817;48.170;8.592;2023-04-28T15:53:56;21.50;52.80
17399;DHT22;8817;48.170;8.592;2023-04-28T15:56:25;21.50;52.70
17399;DHT22;8817;48.170;8.592;2023-04-28T15:58:52;21.50;52.70